sensor_id;sensor_type;location;lat;lon;timestamp;temperature;humidity
12847;DHT22;6492;48.128;8.320;2023-09-30T07:01:04;11.70;77.10
12847;DHT22;6492;48.128;8.320;2023-09-30T09:51:39;19.40;1.00
12847;DHT22;6492;48.128;8.320;2023-09-30T10:04:36;19.30;1.00
12847;DHT22;6492;48.128;8.320;2023-09-30T10:08:42;19.50;1.00
12847;DHT22;6492;48.128;8.320;2023-09-30T10:12:47;19.70;1.00
12847;DHT22;6492;48.128;8.320;2023-09-30T10:17:08;20.00;1.00
12847;DHT22;6492;48.128;8.320;2023-09-30T10:26:15;20.20;1.00
12847;DHT22;6492;48.128;8.320;2023-09-30T10:30:18;20.30;1.00
12847;DHT22;6492;48.128;8.320;2023-09-30T10:34:22;20.40;1.00
12847;DHT22;6492;48.128;8.320;2023-09-30T10:38:40;21.00;1.00
12847;DHT22;6492;48.128;8.320;2023-09-30T10:42:54;21.20;1.00
12847;DHT22;6492;48.128;8.320;2023-09-30T10:46:58;21.40;1.00
12847;DHT22;6492;48.128;8.320;2023-09-30T10:51:13;21.40;1.00
12847;DHT22;6492;48.128;8.320;2023-09-30T10:55:18;21.20;1.00
12847;DHT22;6492;48.128;8.320;2023-09-30T10:59:22;21.00;1.00
12847;DHT22;6492;48.128;8.320;2023-09-30T11:03:24;20.80;1.00
12847;DHT22;6492;48.128;8.320;2023-09-30T11:07:28;21.10;1.00
12847;DHT22;6492;48.128;8.320;2023-09-30T11:11:35;21.20;1.00
12847;DHT22;6492;48.128;8.320;2023-09-30T11:15:41;21.00;1.00
12847;DHT22;6492;48.128;8.320;2023-09-30T11:19:46;20.90;1.00
12847;DHT22;6492;48.128;8.320;2023-09-30T11:23:52;20.80;1.00
12847;DHT22;6492;48.128;8.320;2023-09-30T11:28:12;20.60;1.00
12847;DHT22;6492;48.128;8.320;2023-09-30T11:32:24;20.60;1.00
12847;DHT22;6492;48.128;8.320;2023-09-30T11:36:38;20.80;1.00
12847;DHT22;6492;48.128;8.320;2023-09-30T11:40:40;21.20;1.00
12847;DHT22;6492;48.128;8.320;2023-09-30T11:44:45;21.40;1.00
12847;DHT22;6492;48.128;8.320;2023-09-30T11:48:58;21.20;1.00
12847;DHT22;6492;48.128;8.320;2023-09-30T11:53:01;21.40;1.00
12847;DHT22;6492;48.128;8.320;2023-09-30T11:57:03;21.30;1.00
12847;DHT22;6492;48.128;8.320;2023-09-30T12:01:05;21.40;1.00
12847;DHT22;6492;48.128;8.320;2023-09-30T12:05:09;21.40;1.00
12847;DHT22;6492;48.128;8.320;2023-09-30T12:09:11;21.80;1.00
12847;DHT22;6492;48.128;8.320;2023-09-30T12:13:15;21.70;1.00
12847;DHT22;6492;48.128;8.320;2023-09-30T12:17:17;21.80;1.00
12847;DHT22;6492;48.128;8.320;2023-09-30T12:21:20;21.80;1.00
12847;DHT22;6492;48.128;8.320;2023-09-30T12:25:23;22.10;1.00
12847;DHT22;6492;48.128;8.320;2023-09-30T12:29:25;22.50;1.00
12847;DHT22;6492;48.128;8.320;2023-09-30T12:33:28;22.70;1.00
12847;DHT22;6492;48.128;8.320;2023-09-30T12:37:32;22.80;1.00
12847;DHT22;6492;48.128;8.320;2023-09-30T12:41:34;22.80;1.00
12847;DHT22;6492;48.128;8.320;2023-09-30T12:45:36;23.00;1.00
12847;DHT22;6492;48.128;8.320;2023-09-30T12:49:39;23.20;1.00
12847;DHT22;6492;48.128;8.320;2023-09-30T12:53:42;23.40;1.00
12847;DHT22;6492;48.128;8.320;2023-09-30T12:57:44;23.90;1.00
12847;DHT22;6492;48.128;8.320;2023-09-30T13:01:46;24.30;1.00
12847;DHT22;6492;48.128;8.320;2023-09-30T13:05:48;24.00;1.00
12847;DHT22;6492;48.128;8.320;2023-09-30T13:09:52;23.60;1.00
12847;DHT22;6492;48.128;8.320;2023-09-30T13:13:54;23.70;1.00
12847;DHT22;6492;48.128;8.320;2023-09-30T13:17:56;23.70;1.00
12847;DHT22;6492;48.128;8.320;2023-09-30T13:21:59;23.80;1.00
12847;DHT22;6492;48.128;8.320;2023-09-30T13:26:02;23.90;1.00
12847;DHT22;6492;48.128;8.320;2023-09-30T13:30:05;24.00;1.00
12847;DHT22;6492;48.128;8.320;2023-09-30T13:34:08;24.00;1.00
12847;DHT22;6492;48.128;8.320;2023-09-30T13:38:10;23.70;1.00
12847;DHT22;6492;48.128;8.320;2023-09-30T13:42:13;23.10;1.00
12847;DHT22;6492;48.128;8.320;2023-09-30T13:46:15;22.40;1.00
12847;DHT22;6492;48.128;8.320;2023-09-30T13:55:14;21.10;1.00
12847;DHT22;6492;48.128;8.320;2023-09-30T13:59:20;20.60;1.00
12847;DHT22;6492;48.128;8.320;2023-09-30T14:03:22;20.50;1.00
12847;DHT22;6492;48.128;8.320;2023-09-30T14:07:25;20.30;1.00
12847;DHT22;6492;48.128;8.320;2023-09-30T14:59:12;19.30;5.30
12847;DHT22;6492;48.128;8.320;2023-09-30T15:12:52;20.00;2.90
12847;DHT22;6492;48.128;8.320;2023-09-30T16:16:28;16.50;12.90
12847;DHT22;6492;48.128;8.320;2023-09-30T17:17:19;14.30;22.50
12847;DHT22;6492;48.128;8.320;2023-09-30T17:21:42;14.10;25.00
12847;DHT22;6492;48.128;8.320;2023-09-30T17:30:17;13.40;28.00
12847;DHT22;6492;48.128;8.320;2023-09-30T19:29:19;10.20;51.70
